Time;durP1;ratioP1;P1;durP2;ratioP2;P2;SDS_P1;SDS_P2;PMS_P1;PMS_P2;Temp;Humidity;BMP_temperature;BMP_pressure;BME280_temperature;BME280_humidity;BME280_pressure;Samples;Min_cycle;Max_cycle;Signal;HPM_P1;HPM_P2
2023/04/11 00:02:03;;;;;;;;;;;7.50;99.90;;;;;;5098271;28;20012;-58
2023/04/11 00:04:29;;;;;;;;;;;7.50;99.90;;;;;;5098268;28;19916;-58
2023/04/11 00:06:55;;;;;;;;;;;7.60;99.90;;;;;;5098200;28;19919;-58
2023/04/11 00:09:21;;;;;;;;;;;7.50;99.90;;;;;;5098212;28;19916;-58
2023/04/11 00:11:47;;;;;;;;;;;7.50;99.90;;;;;;5098071;28;19915;-58
2023/04/11 00:14:14;;;;;;;;;;;7.40;99.90;;;;;;5098050;28;20387;-58
2023/04/11 00:16:40;;;;;;;;;;;7.40;99.90;;;;;;5098133;28;19926;-58
2023/04/11 00:19:08;;;;;;;;;;;7.40;99.90;;;;;;5098193;28;20277;-58
2023/04/11 00:21:34;;;;;;;;;;;7.40;99.90;;;;;;5097665;28;20361;-58
2023/04/11 00:24:00;;;;;;;;;;;7.40;99.90;;;;;;5097928;28;19916;-58
2023/04/11 00:26:26;;;;;;;;;;;7.40;99.90;;;;;;5097927;28;20417;-58
2023/04/11 00:28:52;;;;;;;;;;;7.40;99.90;;;;;;5097860;28;19916;-58
2023/04/11 00:31:18;;;;;;;;;;;7.30;99.90;;;;;;5079862;28;19912;-58
2023/04/11 00:33:44;;;;;;;;;;;7.30;99.90;;;;;;5097929;28;19919;-58
2023/04/11 00:36:10;;;;;;;;;;;7.40;99.90;;;;;;5096375;28;19983;-58
2023/04/11 00:38:35;;;;;;;;;;;7.40;99.90;;;;;;5079738;28;19919;-58
2023/04/11 00:41:01;;;;;;;;;;;7.50;99.90;;;;;;5097708;28;19912;-58
2023/04/11 00:43:27;;;;;;;;;;;7.50;99.90;;;;;;5097543;28;20174;-58
2023/04/11 00:45:53;;;;;;;;;;;7.50;99.90;;;;;;5097727;28;20297;-58
2023/04/11 00:48:19;;;;;;;;;;;7.50;99.90;;;;;;5097422;28;20269;-58
2023/04/11 00:50:44;;;;;;;;;;;7.40;99.90;;;;;;5097377;28;19920;-58
2023/04/11 00:53:11;;;;;;;;;;;7.50;99.90;;;;;;5079552;28;19919;-58
2023/04/11 00:55:37;;;;;;;;;;;7.40;99.90;;;;;;5075806;28;19920;-58
2023/04/11 00:58:02;;;;;;;;;;;7.40;99.90;;;;;;5077550;28;19923;-58
2023/04/11 01:00:31;;;;;;;;;;;7.50;99.90;;;;;;5077162;28;20370;-58
2023/04/11 01:02:57;;;;;;;;;;;7.60;99.90;;;;;;5077174;28;19951;-58
2023/04/11 01:05:23;;;;;;;;;;;7.60;99.90;;;;;;5076668;28;20354;-58
2023/04/11 01:07:50;;;;;;;;;;;7.60;99.90;;;;;;5077005;28;19935;-58
2023/04/11 01:10:16;;;;;;;;;;;7.70;99.90;;;;;;5075467;28;19909;-58
2023/04/11 01:12:43;;;;;;;;;;;7.70;99.90;;;;;;5076922;28;19916;-58
2023/04/11 01:15:09;;;;;;;;;;;7.70;99.90;;;;;;5076884;28;19912;-58
2023/04/11 01:17:35;;;;;;;;;;;7.70;99.90;;;;;;5076728;28;20358;-58
2023/04/11 01:20:02;;;;;;;;;;;7.70;99.90;;;;;;5076860;28;19916;-58
2023/04/11 01:22:28;;;;;;;;;;;7.60;99.90;;;;;;5076747;28;19909;-58
2023/04/11 01:24:55;;;;;;;;;;;7.70;99.90;;;;;;5075123;28;20317;-58
2023/04/11 01:27:21;;;;;;;;;;;7.70;99.90;;;;;;5075323;28;20349;-58
2023/04/11 01:29:46;;;;;;;;;;;7.70;99.90;;;;;;5076545;28;19912;-58
2023/04/11 01:32:12;;;;;;;;;;;7.70;99.90;;;;;;5076476;28;19952;-58
2023/04/11 01:34:39;;;;;;;;;;;7.70;99.90;;;;;;5076350;28;19919;-58
2023/04/11 01:37:05;;;;;;;;;;;7.70;99.90;;;;;;5075178;28;20278;-58
2023/04/11 01:39:30;;;;;;;;;;;7.70;99.90;;;;;;5076095;28;19912;-58
2023/04/11 01:41:57;;;;;;;;;;;7.70;99.90;;;;;;5076289;28;19974;-58
2023/04/11 01:44:24;;;;;;;;;;;7.70;99.90;;;;;;5074894;28;20003;-58
2023/04/11 01:46:50;;;;;;;;;;;7.70;99.90;;;;;;5074827;28;19913;-58
2023/04/11 01:49:17;;;;;;;;;;;7.60;99.90;;;;;;5074549;28;19916;-58
2023/04/11 01:51:43;;;;;;;;;;;7.60;99.90;;;;;;5076177;28;20278;-58
2023/04/11 01:54:09;;;;;;;;;;;7.60;99.90;;;;;;5076833;28;19923;-58
2023/04/11 01:56:37;;;;;;;;;;;7.60;99.90;;;;;;5096644;28;19923;-58
2023/04/11 01:59:03;;;;;;;;;;;7.60;99.90;;;;;;5078052;28;19912;-58
2023/04/11 02:01:29;;;;;;;;;;;7.60;99.90;;;;;;5077973;28;20434;-58
2023/04/11 02:03:56;;;;;;;;;;;7.60;99.90;;;;;;5096088;28;20504;-58
2023/04/11 02:06:22;;;;;;;;;;;7.60;99.90;;;;;;5095872;28;19943;-58
2023/04/11 02:08:48;;;;;;;;;;;7.60;99.90;;;;;;5095605;28;19915;-58
2023/04/11 02:11:14;;;;;;;;;;;7.60;99.90;;;;;;5096119;28;20281;-58
2023/04/11 02:13:40;;;;;;;;;;;7.60;99.90;;;;;;5096074;28;19912;-58
2023/04/11 02:16:06;;;;;;;;;;;7.50;99.90;;;;;;5095834;28;20010;-58
2023/04/11 02:18:32;;;;;;;;;;;7.50;99.90;;;;;;5095968;28;19913;-58
2023/04/11 02:20:58;;;;;;;;;;;7.40;99.90;;;;;;5077672;28;19957;-58
2023/04/11 02:23:23;;;;;;;;;;;7.40;99.90;;;;;;5095693;28;20178;-58
2023/04/11 02:25:49;;;;;;;;;;;7.40;99.90;;;;;;5077575;28;19923;-58
2023/04/11 02:28:15;;;;;;;;;;;7.40;99.90;;;;;;5077522;28;19999;-58
2023/04/11 02:30:41;;;;;;;;;;;7.40;99.90;;;;;;5077541;28;19912;-58
2023/04/11 02:33:06;;;;;;;;;;;7.30;99.90;;;;;;5095697;28;20470;-58
2023/04/11 02:35:32;;;;;;;;;;;7.30;99.90;;;;;;5095600;28;19912;-58
2023/04/11 02:37:59;;;;;;;;;;;7.30;99.90;;;;;;5095450;28;20309;-58
2023/04/11 02:40:25;;;;;;;;;;;7.30;99.90;;;;;;5077418;28;19911;-58
2023/04/11 02:42:51;;;;;;;;;;;7.20;99.90;;;;;;5077263;28;19923;-58
2023/04/11 02:45:17;;;;;;;;;;;7.10;99.90;;;;;;5095170;28;19916;-58
2023/04/11 02:47:42;;;;;;;;;;;7.00;99.90;;;;;;5077304;28;19981;-58
2023/04/11 02:50:09;;;;;;;;;;;7.10;99.90;;;;;;5077121;28;20281;-58
2023/04/11 02:52:41;;;;;;;;;;;7.00;99.90;;;;;;5077095;28;19947;-58
2023/04/11 02:55:09;;;;;;;;;;;7.10;99.90;;;;;;5076925;28;19931;-58
2023/04/11 02:57:35;;;;;;;;;;;7.10;99.90;;;;;;5076907;28;20396;-58
2023/04/11 03:00:04;;;;;;;;;;;7.20;99.90;;;;;;5076417;28;19912;-58
2023/04/11 03:02:40;;;;;;;;;;;7.20;99.90;;;;;;5077060;28;19995;-58
2023/04/11 03:05:06;;;;;;;;;;;7.20;99.90;;;;;;5077136;28;19923;-58
2023/04/11 03:07:37;;;;;;;;;;;7.10;99.90;;;;;;5076877;28;19920;-58
2023/04/11 03:10:03;;;;;;;;;;;7.00;99.90;;;;;;5076743;28;19962;-58
2023/04/11 03:12:31;;;;;;;;;;;7.10;99.90;;;;;;5076689;28;19915;-58
2023/04/11 03:15:01;;;;;;;;;;;7.00;99.90;;;;;;5076957;28;19912;-58
2023/04/11 03:17:26;;;;;;;;;;;7.00;99.90;;;;;;5095141;28;19924;-58
2023/04/11 03:19:52;;;;;;;;;;;7.00;99.90;;;;;;5076753;28;19919;-58
2023/04/11 03:22:19;;;;;;;;;;;7.00;99.90;;;;;;5076868;28;19912;-58
2023/04/11 03:24:48;;;;;;;;;;;6.90;99.90;;;;;;5076573;28;19966;-58
2023/04/11 03:27:16;;;;;;;;;;;6.90;99.90;;;;;;5076609;28;20003;-58
2023/04/11 03:29:44;;;;;;;;;;;6.90;99.90;;;;;;5060396;28;19916;-58
2023/04/11 03:32:19;;;;;;;;;;;6.80;99.90;;;;;;5076768;28;20334;-58
2023/04/11 03:34:46;;;;;;;;;;;6.80;99.90;;;;;;5076708;28;19916;-58
2023/04/11 03:37:12;;;;;;;;;;;6.80;99.90;;;;;;5076827;28;19911;-58
2023/04/11 03:39:38;;;;;;;;;;;6.80;99.90;;;;;;5076595;28;19919;-58
2023/04/11 03:42:04;;;;;;;;;;;6.80;99.90;;;;;;5094726;28;19912;-58
2023/04/11 03:44:31;;;;;;;;;;;6.80;99.90;;;;;;5076429;28;19924;-58
2023/04/11 03:46:57;;;;;;;;;;;6.80;99.90;;;;;;5076525;28;19912;-58
2023/04/11 03:49:29;;;;;;;;;;;6.80;99.90;;;;;;5076538;28;19919;-58
2023/04/11 03:51:55;;;;;;;;;;;6.90;99.90;;;;;;5076573;28;20057;-58
2023/04/11 03:54:22;;;;;;;;;;;6.90;99.90;;;;;;5076317;28;19973;-58
2023/04/11 03:56:48;;;;;;;;;;;6.90;99.90;;;;;;5076503;28;19920;-58
2023/04/11 03:59:19;;;;;;;;;;;6.90;99.90;;;;;;5076308;28;19975;-58
2023/04/11 04:01:59;;;;;;;;;;;6.90;99.90;;;;;;5076391;28;19929;-58
2023/04/11 04:04:25;;;;;;;;;;;6.90;99.90;;;;;;5076261;28;19916;-58
2023/04/11 04:07:03;;;;;;;;;;;6.90;99.90;;;;;;5094532;28;19943;-58
2023/04/11 04:09:35;;;;;;;;;;;6.90;99.90;;;;;;5076156;28;19923;-58
2023/04/11 04:12:02;;;;;;;;;;;6.90;99.90;;;;;;5079404;28;19912;-58
2023/04/11 04:14:41;;;;;;;;;;;7.00;99.90;;;;;;5080119;28;19912;-58
2023/04/11 04:17:08;;;;;;;;;;;7.00;99.90;;;;;;5079713;28;19916;-58
2023/04/11 04:19:34;;;;;;;;;;;7.10;99.90;;;;;;5098244;28;19912;-58
2023/04/11 04:22:00;;;;;;;;;;;7.10;99.90;;;;;;5079788;28;19991;-58
2023/04/11 04:24:36;;;;;;;;;;;7.10;99.90;;;;;;5079674;28;19916;-58
2023/04/11 04:27:18;;;;;;;;;;;7.10;99.90;;;;;;5079777;28;19920;-58
2023/04/11 04:29:45;;;;;;;;;;;7.20;99.90;;;;;;5079669;28;19938;-58
2023/04/11 04:32:23;;;;;;;;;;;7.20;99.90;;;;;;5079736;28;20008;-58
2023/04/11 04:34:57;;;;;;;;;;;7.30;99.90;;;;;;5079539;28;19952;-58
2023/04/11 04:37:31;;;;;;;;;;;7.20;99.90;;;;;;5079669;28;19912;-58
2023/04/11 04:40:19;;;;;;;;;;;7.20;99.90;;;;;;5079713;28;19927;-58
2023/04/11 04:43:00;;;;;;;;;;;7.20;99.90;;;;;;5079550;28;19915;-58
2023/04/11 04:45:46;;;;;;;;;;;7.30;99.90;;;;;;5079276;28;19930;-58
2023/04/11 04:48:17;;;;;;;;;;;7.40;99.90;;;;;;5079478;28;19918;-58
2023/04/11 04:50:44;;;;;;;;;;;7.40;99.90;;;;;;5079315;28;19912;-58
2023/04/11 04:53:10;;;;;;;;;;;7.40;99.90;;;;;;5079275;28;19967;-58
2023/04/11 04:55:42;;;;;;;;;;;7.40;99.90;;;;;;5075847;28;19928;-58
2023/04/11 04:58:09;;;;;;;;;;;7.40;99.90;;;;;;5075796;28;19916;-58
2023/04/11 05:00:35;;;;;;;;;;;7.30;99.90;;;;;;5075693;28;19919;-58
2023/04/11 05:03:04;;;;;;;;;;;7.20;99.90;;;;;;5075590;28;19920;-58
2023/04/11 05:05:31;;;;;;;;;;;7.20;99.90;;;;;;5075508;28;20017;-58
2023/04/11 05:07:58;;;;;;;;;;;7.20;99.90;;;;;;5075521;28;19913;-58
2023/04/11 05:10:24;;;;;;;;;;;7.30;99.90;;;;;;5076718;28;20370;-58
2023/04/11 05:12:52;;;;;;;;;;;7.30;99.90;;;;;;5075628;28;20270;-58
2023/04/11 05:15:20;;;;;;;;;;;7.30;99.90;;;;;;5075559;28;19913;-58
2023/04/11 05:17:45;;;;;;;;;;;7.30;99.90;;;;;;5075452;28;20278;-58
2023/04/11 05:20:14;;;;;;;;;;;7.40;99.90;;;;;;5075272;28;19912;-58
2023/04/11 05:22:43;;;;;;;;;;;7.40;99.90;;;;;;5074692;28;19920;-58
2023/04/11 05:25:10;;;;;;;;;;;7.40;99.90;;;;;;5074482;28;19912;-58
2023/04/11 05:27:38;;;;;;;;;;;7.50;99.90;;;;;;5075849;28;19936;-58
2023/04/11 05:30:05;;;;;;;;;;;7.60;99.90;;;;;;5076709;28;19912;-58
2023/04/11 05:32:35;;;;;;;;;;;7.70;99.90;;;;;;5075873;28;19920;-58
2023/04/11 05:35:01;;;;;;;;;;;7.70;99.90;;;;;;5076862;28;20362;-58
2023/04/11 05:37:36;;;;;;;;;;;7.80;99.90;;;;;;5074399;28;19912;-58
2023/04/11 05:40:02;;;;;;;;;;;7.90;99.90;;;;;;5072562;28;19920;-58
2023/04/11 05:42:28;;;;;;;;;;;8.00;99.90;;;;;;5064646;28;19913;-58
2023/04/11 05:44:54;;;;;;;;;;;8.00;99.90;;;;;;5074675;28;19979;-58
2023/04/11 05:47:20;;;;;;;;;;;8.20;99.90;;;;;;5074490;28;19920;-58
2023/04/11 05:49:47;;;;;;;;;;;8.40;99.90;;;;;;5074469;28;19917;-58
2023/04/11 05:52:14;;;;;;;;;;;8.40;99.90;;;;;;5076168;28;20348;-58
2023/04/11 06:02:53;;;;;;;;;;;8.80;99.90;;;;;;5036600;28;20278;-58
2023/04/11 06:05:20;;;;;;;;;;;9.00;99.90;;;;;;5068564;28;19920;-58
2023/04/11 06:07:46;;;;;;;;;;;9.20;99.90;;;;;;5075189;28;19920;-58
2023/04/11 06:10:11;;;;;;;;;;;9.30;99.90;;;;;;5075166;28;19917;-58
2023/04/11 06:12:37;;;;;;;;;;;9.30;99.90;;;;;;5071195;28;19916;-58
2023/04/11 06:15:08;;;;;;;;;;;9.40;99.90;;;;;;5064046;28;19917;-58
2023/04/11 06:17:34;;;;;;;;;;;9.60;99.90;;;;;;5055090;28;19916;-58
2023/04/11 06:20:00;;;;;;;;;;;9.70;99.90;;;;;;5065006;28;19916;-58
2023/04/11 06:22:26;;;;;;;;;;;9.70;99.90;;;;;;5062539;28;20086;-58
2023/04/11 06:24:55;;;;;;;;;;;9.80;99.90;;;;;;5061774;28;19920;-58
2023/04/11 06:27:21;;;;;;;;;;;9.80;99.90;;;;;;5067655;28;19951;-58
2023/04/11 06:29:47;;;;;;;;;;;9.80;99.90;;;;;;5056866;28;19920;-58
2023/04/11 06:32:13;;;;;;;;;;;9.80;99.90;;;;;;5064140;28;20294;-58
2023/04/11 06:34:39;;;;;;;;;;;9.80;99.90;;;;;;5073996;28;20354;-58
2023/04/11 06:37:05;;;;;;;;;;;9.80;99.90;;;;;;5074749;28;19931;-58
2023/04/11 06:39:31;;;;;;;;;;;9.80;99.90;;;;;;5074861;28;19916;-58
2023/04/11 06:41:57;;;;;;;;;;;9.90;99.90;;;;;;5075147;28;20427;-58
2023/04/11 06:44:25;;;;;;;;;;;10.00;99.90;;;;;;5072459;28;19927;-58
2023/04/11 06:46:51;;;;;;;;;;;10.00;99.90;;;;;;5067287;28;19955;-58
2023/04/11 06:49:17;;;;;;;;;;;10.00;99.90;;;;;;5074932;28;20293;-58
2023/04/11 06:51:48;;;;;;;;;;;10.20;99.90;;;;;;5075054;28;19912;-58
2023/04/11 06:54:13;;;;;;;;;;;10.20;99.90;;;;;;5077662;28;19916;-58
2023/04/11 06:56:39;;;;;;;;;;;10.40;99.90;;;;;;5095181;28;19919;-58
2023/04/11 06:59:05;;;;;;;;;;;10.60;99.90;;;;;;5094876;28;19951;-58
2023/04/11 07:01:36;;;;;;;;;;;10.80;99.90;;;;;;5094865;28;19919;-58
2023/04/11 07:04:05;;;;;;;;;;;10.90;99.90;;;;;;5094839;28;19920;-58
2023/04/11 07:06:34;;;;;;;;;;;11.00;99.90;;;;;;5094336;28;19916;-58
2023/04/11 07:09:02;;;;;;;;;;;11.20;99.90;;;;;;5094897;28;19912;-58
2023/04/11 07:11:28;;;;;;;;;;;11.30;99.90;;;;;;5094689;28;19947;-58
2023/04/11 07:13:54;;;;;;;;;;;11.30;99.90;;;;;;5094727;28;20041;-58
2023/04/11 07:16:20;;;;;;;;;;;11.60;99.90;;;;;;5094953;28;19912;-58
2023/04/11 07:18:46;;;;;;;;;;;12.00;99.90;;;;;;5093245;28;19912;-58
2023/04/11 07:21:13;;;;;;;;;;;12.30;99.90;;;;;;5095318;28;19912;-58
2023/04/11 07:23:39;;;;;;;;;;;12.80;99.90;;;;;;5095091;28;19913;-58
2023/04/11 07:26:07;;;;;;;;;;;13.40;99.90;;;;;;5095053;28;20088;-58
2023/04/11 07:28:34;;;;;;;;;;;13.70;99.90;;;;;;5094609;28;19965;-58
2023/04/11 07:30:59;;;;;;;;;;;13.90;99.60;;;;;;5090453;28;19963;-58
2023/04/11 07:33:26;;;;;;;;;;;14.20;91.80;;;;;;5094992;28;19916;-58
2023/04/11 07:35:51;;;;;;;;;;;14.10;88.10;;;;;;5095036;28;20593;-58
2023/04/11 07:38:26;;;;;;;;;;;14.50;87.70;;;;;;5077203;28;19919;-59
2023/04/11 07:40:52;;;;;;;;;;;15.00;91.00;;;;;;5092613;28;19951;-58
2023/04/11 07:43:18;;;;;;;;;;;15.10;81.20;;;;;;5077172;28;19939;-59
2023/04/11 07:45:44;;;;;;;;;;;15.00;85.00;;;;;;5089032;28;20365;-58
2023/04/11 07:48:10;;;;;;;;;;;15.60;86.00;;;;;;5093979;28;19915;-59
2023/04/11 07:50:36;;;;;;;;;;;15.90;83.40;;;;;;5098532;28;19923;-59
2023/04/11 07:53:02;;;;;;;;;;;16.10;81.00;;;;;;5098608;28;19912;-59
2023/04/11 07:55:28;;;;;;;;;;;16.30;75.30;;;;;;5096141;28;20032;-59
2023/04/11 07:57:53;;;;;;;;;;;16.40;74.80;;;;;;5089128;28;19923;-59
2023/04/11 08:00:21;;;;;;;;;;;16.10;75.50;;;;;;5096641;28;19918;-59
2023/04/11 08:02:46;;;;;;;;;;;16.10;75.20;;;;;;5091319;28;20376;-59
2023/04/11 08:05:12;;;;;;;;;;;16.50;77.60;;;;;;5085924;28;19920;-59
2023/04/11 08:07:38;;;;;;;;;;;16.70;73.60;;;;;;5097646;28;19912;-59
2023/04/11 08:10:04;;;;;;;;;;;15.90;75.00;;;;;;5097673;28;19938;-59
2023/04/11 08:12:30;;;;;;;;;;;16.40;74.70;;;;;;5098090;28;19913;-59
2023/04/11 08:14:56;;;;;;;;;;;16.60;75.70;;;;;;5096752;28;19957;-59
2023/04/11 08:17:24;;;;;;;;;;;17.00;72.90;;;;;;5088618;28;19923;-59
2023/04/11 08:19:50;;;;;;;;;;;17.40;76.50;;;;;;5096367;28;19963;-59
2023/04/11 08:22:16;;;;;;;;;;;17.60;70.00;;;;;;5091285;28;20373;-59
2023/04/11 08:24:42;;;;;;;;;;;17.60;73.10;;;;;;5078742;28;19920;-59
2023/04/11 08:27:08;;;;;;;;;;;17.80;68.30;;;;;;5097055;28;19955;-59
2023/04/11 08:29:34;;;;;;;;;;;17.80;69.20;;;;;;5097540;28;19916;-59
2023/04/11 08:31:59;;;;;;;;;;;17.40;69.00;;;;;;5093529;28;20064;-59
2023/04/11 08:34:25;;;;;;;;;;;17.40;70.20;;;;;;5082069;28;19974;-59
2023/04/11 08:36:51;;;;;;;;;;;17.30;70.80;;;;;;5096909;28;20069;-59
2023/04/11 08:39:17;;;;;;;;;;;17.10;76.00;;;;;;5097592;28;19912;-59
2023/04/11 08:41:43;;;;;;;;;;;17.10;75.30;;;;;;5097627;28;20373;-59
2023/04/11 08:44:10;;;;;;;;;;;17.10;72.70;;;;;;5115799;27;20407;-59
2023/04/11 08:46:39;;;;;;;;;;;17.00;69.40;;;;;;5094056;28;20136;-59
2023/04/11 08:49:05;;;;;;;;;;;17.30;69.60;;;;;;5089077;28;20543;-59
2023/04/11 08:51:31;;;;;;;;;;;17.10;67.00;;;;;;5097099;28;19977;-59
2023/04/11 08:54:00;;;;;;;;;;;17.10;68.60;;;;;;5095689;28;19930;-59
2023/04/11 08:56:26;;;;;;;;;;;17.30;70.30;;;;;;5096201;28;20002;-59
2023/04/11 08:58:52;;;;;;;;;;;17.40;70.40;;;;;;5095930;28;19916;-59
2023/04/11 09:01:31;;;;;;;;;;;17.50;72.50;;;;;;5095776;28;19948;-59
2023/04/11 09:04:00;;;;;;;;;;;17.60;73.30;;;;;;5094656;28;19916;-59
2023/04/11 09:06:29;;;;;;;;;;;17.60;75.80;;;;;;5093096;28;19920;-59
2023/04/11 09:08:57;;;;;;;;;;;17.70;75.40;;;;;;5092850;28;19969;-59
2023/04/11 09:11:23;;;;;;;;;;;17.50;74.00;;;;;;5094858;28;19923;-59
2023/04/11 09:14:03;;;;;;;;;;;17.90;76.30;;;;;;5096045;28;19923;-59
2023/04/11 09:16:29;;;;;;;;;;;18.00;77.90;;;;;;5093505;28;19920;-80
2023/04/11 09:18:55;;;;;;;;;;;18.30;72.50;;;;;;5080849;28;19912;-80
2023/04/11 09:21:21;;;;;;;;;;;18.50;78.10;;;;;;5089598;28;19919;-79
2023/04/11 09:23:47;;;;;;;;;;;18.70;71.00;;;;;;5078621;28;19918;-80
2023/04/11 09:26:23;;;;;;;;;;;18.90;71.30;;;;;;5090352;28;19919;-80
2023/04/11 09:28:52;;;;;;;;;;;19.50;73.60;;;;;;5096973;28;19922;-79
2023/04/11 09:31:18;;;;;;;;;;;19.40;68.50;;;;;;5096844;28;19912;-79
2023/04/11 09:33:57;;;;;;;;;;;20.20;67.20;;;;;;5096777;28;19955;-79
2023/04/11 09:36:25;;;;;;;;;;;20.10;76.00;;;;;;5094932;28;19934;-79
2023/04/11 09:38:52;;;;;;;;;;;20.70;75.30;;;;;;5096708;28;20385;-79
2023/04/11 09:41:31;;;;;;;;;;;21.00;71.20;;;;;;5096856;28;19913;-80
2023/04/11 09:43:57;;;;;;;;;;;21.00;72.30;;;;;;5095931;28;19916;-79
2023/04/11 09:46:26;;;;;;;;;;;20.60;71.60;;;;;;5096634;28;19920;-80
2023/04/11 09:48:53;;;;;;;;;;;20.60;69.70;;;;;;5096673;28;19915;-79
2023/04/11 09:51:19;;;;;;;;;;;20.70;67.80;;;;;;5096064;28;20381;-80
2023/04/11 09:53:45;;;;;;;;;;;20.80;69.60;;;;;;5095998;28;20261;-80
2023/04/11 09:56:12;;;;;;;;;;;20.90;73.10;;;;;;5096106;28;19924;-80
2023/04/11 09:58:39;;;;;;;;;;;20.60;74.40;;;;;;5096372;28;20010;-80
2023/04/11 10:01:06;;;;;;;;;;;21.20;74.30;;;;;;5095944;28;19916;-80
2023/04/11 10:03:37;;;;;;;;;;;21.20;69.30;;;;;;5096390;28;19927;-80
2023/04/11 10:06:15;;;;;;;;;;;21.10;71.10;;;;;;5095728;28;19965;-80
2023/04/11 10:08:41;;;;;;;;;;;20.70;71.50;;;;;;5096404;28;19912;-80
2023/04/11 10:11:08;;;;;;;;;;;20.90;73.50;;;;;;5095977;28;19930;-80
2023/04/11 10:13:34;;;;;;;;;;;21.00;73.30;;;;;;5096068;28;19920;-81
2023/04/11 10:16:21;;;;;;;;;;;21.20;72.20;;;;;;5095486;28;20001;-81
2023/04/11 10:18:50;;;;;;;;;;;21.40;74.20;;;;;;5093018;28;20021;-80
2023/04/11 10:21:27;;;;;;;;;;;21.50;73.20;;;;;;5095945;28;20007;-80
2023/04/11 10:24:09;;;;;;;;;;;21.20;74.30;;;;;;5093041;28;19912;-81
2023/04/11 10:26:56;;;;;;;;;;;21.10;68.90;;;;;;5093741;28;20388;-81
2023/04/11 10:29:45;;;;;;;;;;;21.10;75.00;;;;;;5092884;28;19938;-81
2023/04/11 10:32:11;;;;;;;;;;;21.30;80.20;;;;;;5084337;28;19920;-81
2023/04/11 10:34:38;;;;;;;;;;;21.70;75.30;;;;;;5095158;28;19962;-81
2023/04/11 10:37:07;;;;;;;;;;;22.00;77.40;;;;;;5094864;28;20015;-81
2023/04/11 10:39:52;;;;;;;;;;;22.40;75.30;;;;;;5094822;28;19913;-81
2023/04/11 10:42:37;;;;;;;;;;;22.30;75.90;;;;;;5092407;28;19912;-81
2023/04/11 10:45:23;;;;;;;;;;;21.90;71.10;;;;;;5092904;28;19990;-81
2023/04/11 10:47:55;;;;;;;;;;;22.30;69.20;;;;;;5091500;28;19928;-80
2023/04/11 10:50:26;;;;;;;;;;;22.80;71.00;;;;;;5092433;28;19922;-81
2023/04/11 10:52:52;;;;;;;;;;;23.30;71.90;;;;;;5094528;28;19965;-80
2023/04/11 10:55:18;;;;;;;;;;;23.40;68.20;;;;;;5093672;28;20417;-81
2023/04/11 10:58:04;;;;;;;;;;;23.50;68.20;;;;;;5094262;28;19955;-81
2023/04/11 11:00:50;;;;;;;;;;;23.00;67.40;;;;;;5093029;28;20010;-81
2023/04/11 11:03:19;;;;;;;;;;;23.00;67.00;;;;;;5092344;28;20399;-81
2023/04/11 11:05:59;;;;;;;;;;;22.70;61.90;;;;;;5094621;28;19920;-81
2023/04/11 11:08:29;;;;;;;;;;;22.70;64.50;;;;;;5092435;28;19929;-81
2023/04/11 11:11:01;;;;;;;;;;;23.10;69.60;;;;;;5081938;28;19951;-81
2023/04/11 11:13:37;;;;;;;;;;;22.70;66.30;;;;;;5061415;28;19917;-81
2023/04/11 11:16:03;;;;;;;;;;;23.20;67.00;;;;;;5050415;28;19958;-81
2023/04/11 11:18:30;;;;;;;;;;;23.60;68.60;;;;;;5065864;28;20479;-81
2023/04/11 11:20:55;;;;;;;;;;;23.60;71.30;;;;;;5066433;28;20412;-81
2023/04/11 11:23:21;;;;;;;;;;;23.80;61.60;;;;;;5065706;28;20017;-82
2023/04/11 11:25:54;;;;;;;;;;;23.00;63.50;;;;;;5066843;28;19920;-83
2023/04/11 11:28:20;;;;;;;;;;;22.60;62.00;;;;;;5064775;28;19916;-83
2023/04/11 11:30:50;;;;;;;;;;;22.20;64.30;;;;;;5066538;28;19912;-82
2023/04/11 11:33:20;;;;;;;;;;;22.30;64.20;;;;;;5066754;28;20759;-81
2023/04/11 11:35:51;;;;;;;;;;;22.90;65.80;;;;;;5066868;28;19916;-81
2023/04/11 11:38:21;;;;;;;;;;;23.20;60.10;;;;;;5067868;28;20282;-81
2023/04/11 11:40:47;;;;;;;;;;;23.50;59.50;;;;;;5068054;28;20014;-83
2023/04/11 11:43:13;;;;;;;;;;;23.10;57.70;;;;;;5066071;28;19916;-83
2023/04/11 11:45:39;;;;;;;;;;;23.00;59.70;;;;;;5066739;28;19927;-83
2023/04/11 11:48:05;;;;;;;;;;;23.20;64.40;;;;;;5066765;28;20442;-82
2023/04/11 11:50:31;;;;;;;;;;;23.60;61.50;;;;;;5066232;28;19926;-82
2023/04/11 11:53:23;;;;;;;;;;;23.60;63.90;;;;;;5066163;28;20012;-82
2023/04/11 11:55:50;;;;;;;;;;;23.80;64.60;;;;;;5063344;28;19991;-82
2023/04/11 11:58:18;;;;;;;;;;;23.70;66.90;;;;;;5065629;28;19970;-82
2023/04/11 12:00:46;;;;;;;;;;;24.00;73.30;;;;;;5065943;28;19966;-82
2023/04/11 12:03:16;;;;;;;;;;;23.90;69.70;;;;;;5063655;28;19927;-82
2023/04/11 12:05:43;;;;;;;;;;;23.70;57.70;;;;;;5064878;28;20012;-82
2023/04/11 12:08:09;;;;;;;;;;;23.90;57.90;;;;;;5063098;28;19923;-83
2023/04/11 12:10:40;;;;;;;;;;;23.90;58.70;;;;;;5065331;28;19972;-83
2023/04/11 12:13:22;;;;;;;;;;;23.50;56.40;;;;;;5063990;28;19920;-83
2023/04/11 12:15:53;;;;;;;;;;;23.50;57.30;;;;;;5063008;28;19920;-84
2023/04/11 12:18:19;;;;;;;;;;;23.90;56.60;;;;;;5065042;28;19916;-84
2023/04/11 12:20:45;;;;;;;;;;;23.90;57.20;;;;;;5066755;28;20031;-84
2023/04/11 12:23:11;;;;;;;;;;;23.90;55.60;;;;;;5066868;28;19912;-84
2023/04/11 12:25:37;;;;;;;;;;;24.20;58.30;;;;;;5064549;28;20041;-84
2023/04/11 12:28:03;;;;;;;;;;;23.90;61.30;;;;;;5065300;28;19920;-84
2023/04/11 12:30:28;;;;;;;;;;;24.00;59.70;;;;;;5065924;28;19916;-84
2023/04/11 12:32:55;;;;;;;;;;;24.10;56.20;;;;;;5069314;28;20380;-84
2023/04/11 12:35:21;;;;;;;;;;;24.20;58.30;;;;;;5070745;28;19916;-85
2023/04/11 12:37:46;;;;;;;;;;;24.00;64.10;;;;;;5070963;28;19935;-86
2023/04/11 12:40:14;;;;;;;;;;;24.10;62.20;;;;;;5065129;28;19927;-86
2023/04/11 12:42:40;;;;;;;;;;;23.80;61.10;;;;;;5050971;28;19916;-86
2023/04/11 12:45:06;;;;;;;;;;;23.40;55.20;;;;;;5064363;28;20373;-86
2023/04/11 12:47:33;;;;;;;;;;;23.50;57.10;;;;;;5071002;28;19915;-87
2023/04/11 12:50:02;;;;;;;;;;;23.20;55.70;;;;;;5069508;28;19916;-87
2023/04/11 12:52:28;;;;;;;;;;;22.90;54.20;;;;;;5070332;28;19916;-88
2023/04/11 12:54:54;;;;;;;;;;;22.60;55.40;;;;;;5069886;28;19927;-87
2023/04/11 12:57:20;;;;;;;;;;;22.50;57.70;;;;;;5070240;28;19916;-87
2023/04/11 12:59:46;;;;;;;;;;;22.10;53.30;;;;;;5071219;28;20353;-87
2023/04/11 13:02:11;;;;;;;;;;;22.20;57.80;;;;;;5068835;28;20274;-87
2023/04/11 13:04:37;;;;;;;;;;;22.30;56.50;;;;;;5070205;28;20328;-86
2023/04/11 13:07:03;;;;;;;;;;;22.50;56.00;;;;;;5072002;28;19959;-86
2023/04/11 13:09:30;;;;;;;;;;;22.40;55.00;;;;;;5072605;28;20020;-86
2023/04/11 13:11:56;;;;;;;;;;;22.60;55.50;;;;;;5073243;28;19912;-85
2023/04/11 13:14:22;;;;;;;;;;;22.80;58.00;;;;;;5072457;28;19923;-85
2023/04/11 13:16:48;;;;;;;;;;;22.90;62.10;;;;;;5072496;28;19916;-86
2023/04/11 13:19:14;;;;;;;;;;;23.10;58.00;;;;;;5054773;28;20090;-85
2023/04/11 13:21:40;;;;;;;;;;;23.00;58.70;;;;;;5092277;28;19912;-85
2023/04/11 13:24:06;;;;;;;;;;;22.40;59.40;;;;;;5094770;28;19923;-85
2023/04/11 13:26:32;;;;;;;;;;;22.50;58.00;;;;;;5095364;28;19920;-86
2023/04/11 13:28:58;;;;;;;;;;;22.60;58.40;;;;;;5094822;28;19916;-86
2023/04/11 13:31:25;;;;;;;;;;;22.50;58.20;;;;;;5095023;28;20430;-85
2023/04/11 13:33:51;;;;;;;;;;;22.50;59.00;;;;;;5094844;28;19912;-86
2023/04/11 13:36:17;;;;;;;;;;;22.70;56.00;;;;;;5095057;28;20414;-85
2023/04/11 13:38:44;;;;;;;;;;;22.20;54.00;;;;;;5094511;28;19916;-86
2023/04/11 13:41:10;;;;;;;;;;;21.50;61.90;;;;;;5094747;28;19970;-85
2023/04/11 13:43:36;;;;;;;;;;;21.70;59.80;;;;;;5094197;28;19959;-86
2023/04/11 13:46:01;;;;;;;;;;;21.20;60.90;;;;;;5094437;28;19927;-85
2023/04/11 13:48:27;;;;;;;;;;;21.20;58.50;;;;;;5094636;28;20316;-86
2023/04/11 13:50:56;;;;;;;;;;;21.20;60.40;;;;;;5094213;28;19916;-85
2023/04/11 13:53:22;;;;;;;;;;;21.30;59.20;;;;;;5094704;28;19915;-85
2023/04/11 13:55:48;;;;;;;;;;;21.10;57.30;;;;;;5094166;28;20305;-87
2023/04/11 13:58:14;;;;;;;;;;;21.10;60.20;;;;;;5094316;28;20010;-86
2023/04/11 14:00:40;;;;;;;;;;;20.90;63.10;;;;;;5094601;28;19912;-85
2023/04/11 14:03:06;;;;;;;;;;;20.70;61.40;;;;;;5094662;28;19931;-84
2023/04/11 14:05:34;;;;;;;;;;;20.60;62.00;;;;;;5093813;28;19927;-85
2023/04/11 14:08:00;;;;;;;;;;;20.70;57.40;;;;;;5094086;28;20678;-84
2023/04/11 14:10:26;;;;;;;;;;;20.70;59.90;;;;;;5094143;28;19912;-85
2023/04/11 14:12:52;;;;;;;;;;;20.90;57.70;;;;;;5093871;28;19922;-86
2023/04/11 14:15:17;;;;;;;;;;;20.80;59.30;;;;;;5094040;28;19920;-84
2023/04/11 14:17:45;;;;;;;;;;;20.40;56.70;;;;;;5094054;28;20414;-85
2023/04/11 14:20:12;;;;;;;;;;;20.10;60.50;;;;;;5093916;28;19982;-85
2023/04/11 14:22:37;;;;;;;;;;;20.10;61.90;;;;;;5094036;28;19944;-85
2023/04/11 14:25:04;;;;;;;;;;;20.20;61.80;;;;;;5093821;28;20418;-86
2023/04/11 14:27:30;;;;;;;;;;;20.00;60.80;;;;;;5093884;28;19958;-85
2023/04/11 14:29:56;;;;;;;;;;;19.90;60.40;;;;;;5093791;28;19916;-86
2023/04/11 14:32:21;;;;;;;;;;;19.80;58.80;;;;;;5093748;28;19916;-86
2023/04/11 14:34:47;;;;;;;;;;;19.70;56.50;;;;;;5093605;28;19916;-86
2023/04/11 14:37:13;;;;;;;;;;;19.80;56.60;;;;;;5093763;28;19916;-87